Time;durP1;ratioP1;P1;durP2;ratioP2;P2;SDS_P1;SDS_P2;PMS_P1;PMS_P2;Temp;Humidity;BMP_temperature;BMP_pressure;BME280_temperature;BME280_humidity;BME280_pressure;Samples;Min_cycle;Max_cycle;Signal;HPM_P1;HPM_P2
2023/04/10 00:00:23;;;;;;;55.30;36.45;;;6.20;99.90;;;;;;2075457;28;20065;-77
2023/04/10 00:01:23;;;;;;;56.03;36.53;;;6.30;99.90;;;;;;2077259;28;20036;-76
2023/04/10 00:02:24;;;;;;;53.78;36.00;;;6.20;99.90;;;;;;2084161;28;20435;-76
2023/04/10 00:03:25;;;;;;;55.17;36.40;;;6.20;99.90;;;;;;2087950;28;20492;-75
2023/04/10 00:04:27;;;;;;;54.47;37.08;;;6.20;99.90;;;;;;2087186;28;20028;-75
2023/04/10 00:05:27;;;;;;;54.13;36.47;;;6.20;99.90;;;;;;2087035;28;20054;-75
2023/04/10 00:06:28;;;;;;;56.00;37.05;;;6.20;99.90;;;;;;2088940;28;20025;-76
2023/04/10 00:07:28;;;;;;;61.33;39.65;;;6.20;99.90;;;;;;2086160;28;20504;-76
2023/04/10 00:08:29;;;;;;;61.13;40.38;;;6.20;99.90;;;;;;2081193;28;20048;-76
2023/04/10 00:09:30;;;;;;;61.60;39.83;;;6.10;99.90;;;;;;2083337;28;20037;-77
2023/04/10 00:10:31;;;;;;;60.63;39.00;;;6.10;99.90;;;;;;2082045;28;20037;-76
2023/04/10 00:11:31;;;;;;;58.90;38.08;;;6.10;99.90;;;;;;2084232;28;20025;-77
2023/04/10 00:12:34;;;;;;;58.08;37.72;;;6.10;99.90;;;;;;2083194;28;20101;-76
2023/04/10 00:13:34;;;;;;;56.15;36.42;;;6.10;99.90;;;;;;2083150;28;20290;-77
2023/04/10 00:14:35;;;;;;;53.88;36.22;;;6.10;99.90;;;;;;2082814;28;20032;-78
2023/04/10 00:15:36;;;;;;;55.42;35.90;;;6.00;99.90;;;;;;2082788;28;20031;-77
2023/04/10 00:16:36;;;;;;;53.10;35.47;;;6.10;99.90;;;;;;2085108;28;20017;-71
2023/04/10 00:17:37;;;;;;;53.35;35.67;;;6.10;99.90;;;;;;2086262;28;20024;-71
2023/04/10 00:18:38;;;;;;;54.00;35.85;;;6.00;99.90;;;;;;2082725;28;20040;-71
2023/04/10 00:19:38;;;;;;;49.92;33.55;;;6.10;99.90;;;;;;2080996;28;20040;-71
2023/04/10 00:20:39;;;;;;;51.35;34.42;;;6.00;99.90;;;;;;2088816;28;20040;-69
2023/04/10 00:21:40;;;;;;;51.38;34.28;;;6.00;99.90;;;;;;2082176;28;20033;-71
2023/04/10 00:22:41;;;;;;;50.90;34.58;;;6.00;99.90;;;;;;2082165;28;20033;-70
2023/04/10 00:23:42;;;;;;;51.50;35.40;;;6.00;99.90;;;;;;2082927;28;20039;-71
2023/04/10 00:24:42;;;;;;;48.40;32.90;;;6.00;99.90;;;;;;2084358;28;20519;-70
2023/04/10 00:25:43;;;;;;;49.13;33.58;;;6.00;99.90;;;;;;2082342;28;20047;-70
2023/04/10 00:26:43;;;;;;;51.95;34.95;;;6.00;99.90;;;;;;2082883;28;20177;-69
2023/04/10 00:27:44;;;;;;;51.63;33.67;;;6.00;99.90;;;;;;2082813;28;20498;-70
2023/04/10 00:28:44;;;;;;;49.65;33.58;;;6.00;99.90;;;;;;2082891;28;20041;-70
2023/04/10 00:29:45;;;;;;;54.80;35.30;;;5.90;99.90;;;;;;2084838;28;20025;-70
2023/04/10 00:30:46;;;;;;;50.80;35.33;;;5.90;99.90;;;;;;2082189;28;20024;-68
2023/04/10 00:31:46;;;;;;;50.08;34.03;;;5.90;99.90;;;;;;2082190;28;20094;-68
2023/04/10 00:32:47;;;;;;;51.30;34.83;;;5.90;99.90;;;;;;2082931;28;20558;-71
2023/04/10 00:33:47;;;;;;;49.50;34.20;;;5.90;99.90;;;;;;2089885;28;20031;-71
2023/04/10 00:34:49;;;;;;;50.53;34.80;;;5.80;99.90;;;;;;2086413;28;20550;-68
2023/04/10 00:35:49;;;;;;;50.85;35.05;;;5.80;99.90;;;;;;2083548;28;20595;-69
2023/04/10 00:36:50;;;;;;;49.20;33.92;;;5.80;99.90;;;;;;2073867;28;20060;-69
2023/04/10 00:37:51;;;;;;;51.88;35.33;;;5.80;99.90;;;;;;2084168;28;20052;-69
2023/04/10 00:38:51;;;;;;;50.75;34.83;;;5.80;99.90;;;;;;2081991;28;20295;-69
2023/04/10 00:39:52;;;;;;;48.33;34.50;;;5.80;99.90;;;;;;2081998;28;20048;-70
2023/04/10 00:40:53;;;;;;;50.08;34.72;;;5.80;99.90;;;;;;2082840;28;20033;-70
2023/04/10 00:41:53;;;;;;;50.67;34.10;;;5.80;99.90;;;;;;2087888;28;20021;-69
2023/04/10 00:42:54;;;;;;;50.58;34.17;;;5.70;99.90;;;;;;2082736;28;21142;-70
2023/04/10 00:43:56;;;;;;;49.47;34.17;;;5.70;99.90;;;;;;2082559;28;20518;-70
2023/04/10 00:44:56;;;;;;;51.22;34.72;;;5.70;99.90;;;;;;2082985;28;20044;-70
2023/04/10 00:45:58;;;;;;;50.53;34.53;;;5.70;99.90;;;;;;2087719;28;20041;-70
2023/04/10 00:46:58;;;;;;;52.25;34.63;;;5.70;99.90;;;;;;2087695;28;20040;-69
2023/04/10 00:47:59;;;;;;;51.05;34.10;;;5.70;99.90;;;;;;2081613;28;20473;-68
2023/04/10 00:49:00;;;;;;;49.20;33.70;;;5.60;99.90;;;;;;2081886;28;20033;-69
2023/04/10 00:50:00;;;;;;;50.50;34.65;;;5.60;99.90;;;;;;2083860;28;20074;-68
2023/04/10 00:51:01;;;;;;;48.80;33.17;;;5.60;99.90;;;;;;2073760;28;20162;-69
2023/04/10 00:52:02;;;;;;;49.22;33.50;;;5.60;99.90;;;;;;2081984;28;20202;-69
2023/04/10 00:53:02;;;;;;;50.80;34.63;;;5.60;99.90;;;;;;2082618;28;20055;-69
2023/04/10 00:54:03;;;;;;;53.83;35.50;;;5.60;99.90;;;;;;2082006;28;20119;-69
2023/04/10 00:55:05;;;;;;;53.35;35.20;;;5.60;99.90;;;;;;2082210;28;20025;-69
2023/04/10 00:56:06;;;;;;;50.92;35.15;;;5.60;99.90;;;;;;2084378;28;20098;-69
2023/04/10 00:57:07;;;;;;;51.25;35.15;;;5.60;99.90;;;;;;2087486;28;20472;-69
2023/04/10 00:58:12;;;;;;;51.10;35.20;;;5.60;99.90;;;;;;2082703;28;20029;-69
2023/04/10 00:59:13;;;;;;;51.50;35.38;;;5.50;99.90;;;;;;2081823;28;20332;-69
2023/04/10 01:00:15;;;;;;;50.90;34.85;;;5.60;99.90;;;;;;2078464;28;20192;-70
2023/04/10 01:01:16;;;;;;;48.53;33.83;;;5.60;99.90;;;;;;2079969;28;20025;-69
2023/04/10 01:02:17;;;;;;;51.13;34.63;;;5.50;99.90;;;;;;2081734;28;20035;-69
2023/04/10 01:03:19;;;;;;;50.22;34.67;;;5.50;99.90;;;;;;2073713;28;20029;-69
2023/04/10 01:04:22;;;;;;;49.22;33.88;;;5.50;99.90;;;;;;2073485;28;20176;-68
2023/04/10 01:05:24;;;;;;;52.30;35.10;;;5.50;99.90;;;;;;2080055;28;20029;-68
2023/04/10 01:06:38;;;;;;;49.95;35.00;;;5.50;99.90;;;;;;2081785;28;20701;-69
2023/04/10 01:08:16;;;;;;;51.05;35.05;;;5.50;99.90;;;;;;2072660;28;20515;-71
2023/04/10 01:09:31;;;;;;;50.05;33.90;;;5.50;99.90;;;;;;2083546;28;20110;-69
2023/04/10 01:10:47;;;;;;;48.80;33.90;;;5.40;99.90;;;;;;2092305;28;20024;-69
2023/04/10 01:11:57;;;;;;;51.40;33.97;;;5.40;99.90;;;;;;2083996;28;20060;-69
2023/04/10 01:13:10;;;;;;;52.65;34.63;;;5.40;99.90;;;;;;2081964;28;20032;-69
2023/04/10 01:14:21;;;;;;;49.63;34.53;;;5.40;99.90;;;;;;2081844;28;20576;-69
2023/04/10 01:15:25;;;;;;;51.20;34.42;;;5.40;99.90;;;;;;2082793;28;20061;-69
2023/04/10 01:16:37;;;;;;;50.35;34.50;;;5.40;99.90;;;;;;2081732;28;20492;-69
2023/04/10 01:18:09;;;;;;;48.42;34.10;;;5.30;99.90;;;;;;2081599;28;20135;-69
2023/04/10 01:19:34;;;;;;;53.53;35.90;;;5.30;99.90;;;;;;2080075;28;20094;-69
2023/04/10 01:20:38;;;;;;;51.65;34.78;;;5.30;99.90;;;;;;2095908;28;20306;-69
2023/04/10 01:21:40;;;;;;;52.55;35.88;;;5.30;99.90;;;;;;2089395;28;20049;-69
2023/04/10 01:23:01;;;;;;;51.65;35.72;;;5.30;99.90;;;;;;2081745;28;20036;-69
2023/04/10 01:24:23;;;;;;;53.05;35.38;;;5.30;99.90;;;;;;2080102;28;20025;-69
2023/04/10 01:25:39;;;;;;;49.33;34.10;;;5.30;99.90;;;;;;2079272;28;20485;-69
2023/04/10 01:27:04;;;;;;;51.83;35.15;;;5.30;99.90;;;;;;2082314;28;20032;-69
2023/04/10 01:28:17;;;;;;;55.73;35.87;;;5.30;99.90;;;;;;2082675;28;20428;-70
2023/04/10 01:29:20;;;;;;;52.60;35.10;;;5.30;99.90;;;;;;2078787;28;20025;-69
2023/04/10 01:30:21;;;;;;;52.50;35.42;;;5.20;99.90;;;;;;2073403;28;20143;-69
2023/04/10 01:31:41;;;;;;;53.10;36.33;;;5.20;99.90;;;;;;2078188;28;20033;-69
2023/04/10 01:32:43;;;;;;;53.83;35.78;;;5.20;99.90;;;;;;2078869;28;20445;-69
2023/04/10 01:33:49;;;;;;;54.10;37.10;;;5.20;99.90;;;;;;2086121;28;20060;-69
2023/04/10 01:34:53;;;;;;;54.25;36.80;;;5.20;99.90;;;;;;2084021;28;20036;-69
2023/04/10 01:35:58;;;;;;;52.42;35.53;;;5.20;99.90;;;;;;2078964;28;20048;-68
2023/04/10 01:37:01;;;;;;;54.50;37.05;;;5.20;99.90;;;;;;2081784;28;20466;-68
2023/04/10 01:38:05;;;;;;;55.15;37.10;;;5.20;99.90;;;;;;2082125;28;20021;-69
2023/04/10 01:39:08;;;;;;;53.63;36.78;;;5.20;99.90;;;;;;2081383;28;20184;-68
2023/04/10 01:40:13;;;;;;;52.63;36.13;;;5.20;99.90;;;;;;2081718;28;20373;-68
2023/04/10 01:41:14;;;;;;;56.05;37.47;;;5.20;99.90;;;;;;2081237;28;20493;-72
2023/04/10 01:42:18;;;;;;;57.90;38.40;;;5.20;99.90;;;;;;2083611;28;20447;-79
2023/04/10 01:43:20;;;;;;;54.58;37.83;;;5.20;99.90;;;;;;2082403;28;20147;-66
2023/04/10 01:44:28;;;;;;;58.33;38.53;;;5.30;99.90;;;;;;2071730;28;20026;-67
2023/04/10 01:45:30;;;;;;;56.88;38.20;;;5.30;99.90;;;;;;2078943;28;20036;-69
2023/04/10 01:46:32;;;;;;;57.00;37.70;;;5.30;99.90;;;;;;2082101;28;20447;-69
2023/04/10 01:47:33;;;;;;;56.38;37.60;;;5.30;99.90;;;;;;2087819;28;20455;-69
2023/04/10 01:48:34;;;;;;;55.50;37.78;;;5.20;99.90;;;;;;2081431;28;20123;-68
2023/04/10 01:49:41;;;;;;;60.15;41.53;;;5.20;99.90;;;;;;2081562;28;20542;-68
2023/04/10 01:50:42;;;;;;;69.03;47.08;;;5.20;99.90;;;;;;2081416;28;20117;-68
2023/04/10 01:51:45;;;;;;;71.13;48.28;;;5.20;99.90;;;;;;2073057;28;20025;-68
2023/04/10 01:52:47;;;;;;;70.53;47.45;;;5.20;99.90;;;;;;2073409;28;20360;-68
2023/04/10 01:53:53;;;;;;;69.13;47.78;;;5.20;99.90;;;;;;2074146;28;20033;-69
2023/04/10 01:55:00;;;;;;;69.85;47.50;;;5.20;99.90;;;;;;2075896;28;20032;-68
2023/04/10 01:56:09;;;;;;;70.32;48.10;;;5.10;99.90;;;;;;2072542;28;20056;-70
2023/04/10 01:57:16;;;;;;;69.28;46.92;;;5.10;99.90;;;;;;2075619;28;20044;-69
2023/04/10 01:58:37;;;;;;;70.10;46.83;;;5.10;99.90;;;;;;2078971;28;20056;-69
2023/04/10 01:59:39;;;;;;;68.68;46.83;;;5.10;99.90;;;;;;2085546;28;20074;-69
2023/04/10 02:00:41;;;;;;;71.53;47.85;;;5.00;99.90;;;;;;2078094;28;20659;-68
2023/04/10 02:01:42;;;;;;;67.68;46.47;;;5.00;99.90;;;;;;2079442;28;20029;-68
2023/04/10 02:02:43;;;;;;;69.05;46.75;;;5.00;99.90;;;;;;2081838;28;20052;-68
2023/04/10 02:03:43;;;;;;;68.03;46.65;;;5.00;99.90;;;;;;2089542;28;20485;-68
2023/04/10 02:04:50;;;;;;;64.63;44.83;;;5.00;99.90;;;;;;2090026;28;20750;-69
2023/04/10 02:05:50;;;;;;;68.40;46.10;;;5.00;99.90;;;;;;2089725;28;20606;-67
2023/04/10 02:06:53;;;;;;;65.30;44.55;;;5.00;99.90;;;;;;2091572;28;20052;-68
2023/04/10 02:08:04;;;;;;;67.10;45.00;;;4.90;99.90;;;;;;2080866;28;20032;-69
2023/04/10 02:09:14;;;;;;;69.97;46.75;;;4.90;99.90;;;;;;2071353;28;20033;-69
2023/04/10 02:10:29;;;;;;;70.30;46.53;;;4.90;99.90;;;;;;2078673;28;20090;-68
2023/04/10 02:11:43;;;;;;;70.25;46.70;;;4.90;99.90;;;;;;2082949;28;20401;-69
2023/04/10 02:12:52;;;;;;;69.85;46.33;;;4.80;99.90;;;;;;2071262;28;20401;-69
2023/04/10 02:14:00;;;;;;;68.95;45.55;;;4.80;99.90;;;;;;2079447;28;20029;-69
2023/04/10 02:15:05;;;;;;;68.05;44.47;;;4.80;99.90;;;;;;2084053;28;20056;-68
2023/04/10 02:16:07;;;;;;;71.50;47.28;;;4.80;99.90;;;;;;2079418;28;20029;-69
2023/04/10 02:17:10;;;;;;;73.95;48.30;;;4.80;99.90;;;;;;2070860;28;20041;-68
2023/04/10 02:18:15;;;;;;;69.90;45.97;;;4.70;99.90;;;;;;2081270;28;20110;-68
2023/04/10 02:19:18;;;;;;;67.65;45.85;;;4.70;99.90;;;;;;2081226;28;20060;-69
2023/04/10 02:20:20;;;;;;;66.93;44.97;;;4.70;99.90;;;;;;2081482;28;20503;-69
2023/04/10 02:21:20;;;;;;;65.85;43.78;;;4.70;99.90;;;;;;2081122;28;20037;-68
2023/04/10 02:22:24;;;;;;;66.38;44.53;;;4.70;99.90;;;;;;2073192;28;20045;-68
2023/04/10 02:23:25;;;;;;;64.15;43.63;;;4.70;99.90;;;;;;2081763;28;20098;-68
2023/04/10 02:24:26;;;;;;;62.85;41.83;;;4.70;99.90;;;;;;2095416;28;20036;-68
2023/04/10 02:25:29;;;;;;;64.43;43.05;;;4.70;99.90;;;;;;2089589;28;20036;-69
2023/04/10 02:26:42;;;;;;;62.58;41.25;;;4.70;99.90;;;;;;2081425;28;20316;-68
2023/04/10 02:27:43;;;;;;;60.55;40.92;;;4.70;99.90;;;;;;2082106;28;20041;-68
2023/04/10 02:28:44;;;;;;;61.05;40.30;;;4.70;99.90;;;;;;2081109;28;20033;-68
2023/04/10 02:29:44;;;;;;;59.08;39.80;;;4.70;99.90;;;;;;2073369;28;20476;-68
2023/04/10 02:30:45;;;;;;;59.88;40.17;;;4.70;99.90;;;;;;2083443;28;20094;-69
2023/04/10 02:31:47;;;;;;;57.97;38.60;;;4.60;99.90;;;;;;2081135;28;20027;-68
2023/04/10 02:32:48;;;;;;;61.00;39.40;;;4.60;99.90;;;;;;2081011;28;20025;-68
2023/04/10 02:33:51;;;;;;;57.88;38.70;;;4.60;99.90;;;;;;2073341;28;20026;-68
2023/04/10 02:34:52;;;;;;;60.60;38.50;;;4.60;99.90;;;;;;2083436;28;20466;-68
2023/04/10 02:35:53;;;;;;;58.70;38.55;;;4.60;99.90;;;;;;2073237;28;20068;-68
2023/04/10 02:36:53;;;;;;;53.13;36.47;;;4.60;99.90;;;;;;2081447;28;20086;-68
2023/04/10 02:37:55;;;;;;;59.63;36.95;;;4.60;99.90;;;;;;2083223;28;20029;-67
2023/04/10 02:38:55;;;;;;;54.33;36.40;;;4.60;99.90;;;;;;2085090;28;20029;-67
2023/04/10 02:39:58;;;;;;;54.05;36.50;;;4.60;99.90;;;;;;2084681;28;20044;-67
2023/04/10 02:41:00;;;;;;;55.40;37.00;;;4.60;99.90;;;;;;2068460;28;20021;-68
2023/04/10 02:42:01;;;;;;;55.22;36.88;;;4.60;99.90;;;;;;2083029;28;20110;-68
2023/04/10 02:43:02;;;;;;;54.67;36.67;;;4.60;99.90;;;;;;2082096;28;20025;-68
2023/04/10 02:44:03;;;;;;;53.30;36.20;;;4.50;99.90;;;;;;2081108;28;20585;-68
2023/04/10 02:45:05;;;;;;;54.20;36.78;;;4.50;99.90;;;;;;2073180;28;20341;-68
2023/04/10 02:46:10;;;;;;;55.22;37.78;;;4.50;99.90;;;;;;2070816;28;20678;-67
2023/04/10 02:47:14;;;;;;;57.10;37.88;;;4.50;99.90;;;;;;2072073;28;20495;-68
2023/04/10 02:48:19;;;;;;;56.15;37.00;;;4.50;99.90;;;;;;2079878;28;20029;-68
2023/04/10 02:49:26;;;;;;;58.38;38.78;;;4.50;99.90;;;;;;2083363;28;20062;-68
2023/04/10 02:50:30;;;;;;;57.40;38.28;;;4.50;99.90;;;;;;2084064;28;20025;-68
2023/04/10 02:51:34;;;;;;;56.92;37.83;;;4.50;99.90;;;;;;2084525;28;20029;-68
2023/04/10 02:52:35;;;;;;;57.50;37.88;;;4.50;99.90;;;;;;2086530;28;20076;-68
2023/04/10 02:53:36;;;;;;;56.10;37.45;;;4.50;99.90;;;;;;2089758;28;20099;-69
2023/04/10 02:54:36;;;;;;;57.13;37.63;;;4.50;99.90;;;;;;2087966;28;20029;-69
2023/04/10 02:55:37;;;;;;;58.20;38.78;;;4.40;99.90;;;;;;2078978;28;20591;-69
2023/04/10 02:56:38;;;;;;;56.42;37.88;;;4.50;99.90;;;;;;2074411;28;20025;-69
2023/04/10 02:57:38;;;;;;;56.10;37.47;;;4.50;99.90;;;;;;2074590;28;20338;-69
2023/04/10 02:58:39;;;;;;;59.60;37.83;;;4.40;99.90;;;;;;2085471;28;20032;-69
2023/04/10 02:59:39;;;;;;;55.15;37.75;;;4.40;99.90;;;;;;2086311;28;20607;-69
2023/04/10 03:00:40;;;;;;;55.40;36.55;;;4.40;99.90;;;;;;2086983;28;20479;-69
2023/04/10 03:01:50;;;;;;;55.70;36.58;;;4.40;99.90;;;;;;2078217;28;20029;-69
2023/04/10 03:02:52;;;;;;;55.13;36.13;;;4.50;99.90;;;;;;2079194;28;20060;-69
2023/04/10 03:03:53;;;;;;;53.85;35.78;;;4.50;99.90;;;;;;2080696;28;20550;-69
2023/04/10 03:05:01;;;;;;;54.67;36.72;;;4.50;99.90;;;;;;2073157;28;20024;-69
2023/04/10 03:06:02;;;;;;;56.78;37.15;;;4.50;99.90;;;;;;2079948;28;20025;-69
2023/04/10 03:07:06;;;;;;;56.65;37.60;;;4.50;99.90;;;;;;2087868;28;20017;-69
2023/04/10 03:08:09;;;;;;;56.25;36.50;;;4.60;99.90;;;;;;2078629;28;20124;-69
2023/04/10 03:09:09;;;;;;;56.45;37.10;;;4.60;99.90;;;;;;2077950;28;20447;-69
2023/04/10 03:10:11;;;;;;;55.22;36.65;;;4.60;99.90;;;;;;2080808;28;20436;-70
2023/04/10 03:11:11;;;;;;;56.08;36.58;;;4.60;99.90;;;;;;2084931;28;20033;-69
2023/04/10 03:12:12;;;;;;;54.67;35.42;;;4.60;99.90;;;;;;2082764;28;20089;-69
2023/04/10 03:13:13;;;;;;;54.17;36.13;;;4.70;99.90;;;;;;2074502;28;20033;-68
2023/04/10 03:14:14;;;;;;;54.78;35.85;;;4.70;99.90;;;;;;2082875;28;20518;-69
2023/04/10 03:15:15;;;;;;;53.17;36.38;;;4.70;99.90;;;;;;2084505;28;20021;-68
2023/04/10 03:16:18;;;;;;;55.38;36.63;;;4.70;99.90;;;;;;2078079;28;20051;-69
2023/04/10 03:17:19;;;;;;;54.40;36.35;;;4.70;99.90;;;;;;2077841;28;20116;-68
2023/04/10 03:18:20;;;;;;;54.40;36.13;;;4.70;99.90;;;;;;2088725;28;20215;-68
2023/04/10 03:19:25;;;;;;;54.65;35.45;;;4.70;99.90;;;;;;2082785;28;20080;-68
2023/04/10 03:20:27;;;;;;;53.10;35.50;;;4.80;99.90;;;;;;2084957;28;20013;-68
2023/04/10 03:21:28;;;;;;;54.92;36.35;;;4.80;99.90;;;;;;2083634;28;20078;-68
2023/04/10 03:22:31;;;;;;;55.08;36.65;;;4.80;99.90;;;;;;2082833;28;20040;-68
2023/04/10 03:23:33;;;;;;;57.17;37.08;;;4.80;99.90;;;;;;2074799;28;20128;-68
2023/04/10 03:24:34;;;;;;;55.97;37.13;;;4.80;99.90;;;;;;2082818;28;20443;-68
2023/04/10 03:25:35;;;;;;;56.42;38.75;;;4.80;99.90;;;;;;2085117;28;20119;-68
2023/04/10 03:26:37;;;;;;;57.53;38.70;;;4.90;99.90;;;;;;2080399;28;20611;-68
2023/04/10 03:27:38;;;;;;;58.10;39.17;;;4.90;99.90;;;;;;2082769;28;20252;-69
2023/04/10 03:28:40;;;;;;;57.35;38.05;;;4.90;99.90;;;;;;2082487;28;20437;-68
2023/04/10 03:29:43;;;;;;;55.50;37.42;;;4.90;99.90;;;;;;2082601;28;20033;-67
2023/04/10 03:30:44;;;;;;;54.33;36.70;;;5.00;99.90;;;;;;2080045;28;20025;-68
2023/04/10 03:31:45;;;;;;;55.58;37.47;;;5.00;99.90;;;;;;2082490;28;20271;-69
2023/04/10 03:32:45;;;;;;;57.03;37.53;;;5.00;99.90;;;;;;2082697;28;20048;-69
2023/04/10 03:33:46;;;;;;;53.22;36.17;;;5.00;99.90;;;;;;2082550;28;20041;-69
2023/04/10 03:34:47;;;;;;;54.67;35.83;;;5.00;99.90;;;;;;2091616;28;20581;-70
2023/04/10 03:35:48;;;;;;;54.65;36.60;;;5.00;99.90;;;;;;2079557;28;20288;-70
2023/04/10 03:36:48;;;;;;;53.67;36.20;;;5.00;99.90;;;;;;2080248;28;20033;-69
2023/04/10 03:37:49;;;;;;;53.42;36.75;;;5.00;99.90;;;;;;2082524;28;20086;-69
2023/04/10 03:38:51;;;;;;;52.28;35.15;;;5.00;99.90;;;;;;2068138;28;20805;-69
2023/04/10 03:39:52;;;;;;;53.65;35.47;;;5.00;99.90;;;;;;2071946;28;20035;-69
2023/04/10 03:40:53;;;;;;;54.45;36.08;;;5.00;99.90;;;;;;2066451;28;20026;-70
2023/04/10 03:41:56;;;;;;;54.78;37.17;;;5.00;99.90;;;;;;2085638;28;20021;-69
2023/04/10 03:42:59;;;;;;;53.78;36.83;;;5.10;99.90;;;;;;2085842;28;20032;-69
2023/04/10 03:44:02;;;;;;;55.35;36.92;;;5.10;99.90;;;;;;2077011;28;20033;-69
2023/04/10 03:45:05;;;;;;;56.70;37.67;;;5.10;99.90;;;;;;2076733;28;20485;-69
2023/04/10 03:46:05;;;;;;;55.83;36.88;;;5.10;99.90;;;;;;2084383;28;20103;-69
2023/04/10 03:47:09;;;;;;;54.70;37.22;;;5.00;99.90;;;;;;2084646;28;20626;-69
2023/04/10 03:48:10;;;;;;;55.65;37.90;;;5.10;99.90;;;;;;2079105;28;20032;-69
2023/04/10 03:49:15;;;;;;;56.10;37.25;;;5.00;99.90;;;;;;2082881;28;20052;-67
2023/04/10 03:50:16;;;;;;;57.00;38.08;;;5.00;99.90;;;;;;2082559;28;20487;-68
2023/04/10 03:51:26;;;;;;;54.63;36.97;;;5.00;99.90;;;;;;2075745;28;20187;-68
2023/04/10 03:52:27;;;;;;;53.22;36.08;;;5.00;99.90;;;;;;2082434;28;20486;-69
2023/04/10 03:53:28;;;;;;;55.72;36.53;;;5.00;99.90;;;;;;2082463;28;20068;-67
2023/04/10 03:54:29;;;;;;;57.20;37.05;;;4.90;99.90;;;;;;2079254;28;20021;-68
2023/04/10 03:55:31;;;;;;;55.95;36.83;;;4.90;99.90;;;;;;2074575;28;20036;-69
2023/04/10 03:56:31;;;;;;;54.25;35.80;;;4.90;99.90;;;;;;2073308;28;20025;-68
2023/04/10 03:57:32;;;;;;;55.05;37.13;;;4.90;99.90;;;;;;2082371;28;20036;-68
2023/04/10 03:58:37;;;;;;;56.60;37.10;;;4.80;99.90;;;;;;2092147;28;20330;-68
2023/04/10 03:59:38;;;;;;;56.35;36.67;;;4.80;99.90;;;;;;2079281;28;20031;-68
2023/04/10 04:00:42;;;;;;;61.97;39.13;;;4.80;99.90;;;;;;2082249;28;20485;-68
2023/04/10 04:01:54;;;;;;;56.58;37.88;;;4.70;99.90;;;;;;2075252;28;20063;-69
2023/04/10 04:02:55;;;;;;;58.10;37.28;;;4.70;99.90;;;;;;2082290;28;20658;-68
2023/04/10 04:04:21;;;;;;;55.97;36.60;;;4.70;99.90;;;;;;2082064;28;20147;-68
2023/04/10 04:05:33;;;;;;;56.25;36.42;;;4.70;99.90;;;;;;2085867;28;20556;-68
2023/04/10 04:06:52;;;;;;;58.72;37.30;;;4.70;99.90;;;;;;2088501;28;20061;-68
2023/04/10 04:08:12;;;;;;;59.55;37.55;;;4.60;99.90;;;;;;2081802;28;20072;-68
2023/04/10 04:09:32;;;;;;;59.05;37.30;;;4.60;99.90;;;;;;2082206;28;20017;-70
2023/04/10 04:11:08;;;;;;;59.60;36.33;;;4.60;99.90;;;;;;2080946;28;20513;-69
2023/04/10 04:12:15;;;;;;;56.83;35.80;;;4.50;99.90;;;;;;2073382;28;20026;-69
2023/04/10 04:13:32;;;;;;;58.63;37.03;;;4.50;99.90;;;;;;2074976;28;20037;-69
2023/04/10 04:14:43;;;;;;;60.67;37.50;;;4.50;99.90;;;;;;2075556;28;20348;-69
2023/04/10 04:16:10;;;;;;;59.42;36.92;;;4.50;99.90;;;;;;2080953;28;20037;-69
2023/04/10 04:17:25;;;;;;;60.95;38.03;;;4.50;99.90;;;;;;2082146;28;20499;-69
2023/04/10 04:18:38;;;;;;;61.60;38.00;;;4.50;99.90;;;;;;2082343;28;20041;-69
2023/04/10 04:19:52;;;;;;;61.13;38.00;;;4.50;99.90;;;;;;2083037;28;20036;-70
2023/04/10 04:21:18;;;;;;;59.25;36.72;;;4.40;99.90;;;;;;2080601;28;20149;-70
2023/04/10 04:22:35;;;;;;;59.50;36.90;;;4.40;99.90;;;;;;2079610;28;20150;-69
2023/04/10 04:23:43;;;;;;;60.92;37.95;;;4.40;99.90;;;;;;2074977;28;20041;-70
2023/04/10 04:25:07;;;;;;;62.30;37.88;;;4.40;99.90;;;;;;2084052;28;20067;-70
2023/04/10 04:26:40;;;;;;;62.42;37.55;;;4.50;99.90;;;;;;2057139;28;20125;-69
2023/04/10 04:28:07;;;;;;;66.20;39.17;;;4.50;99.90;;;;;;2081367;28;20128;-69
2023/04/10 04:29:07;;;;;;;64.30;39.00;;;4.50;99.90;;;;;;2082159;28;20052;-69
2023/04/10 04:30:16;;;;;;;59.83;37.75;;;4.50;99.90;;;;;;2082271;28;20041;-69
2023/04/10 04:31:23;;;;;;;61.45;38.33;;;4.50;99.90;;;;;;2065618;28;20460;-69
2023/04/10 04:32:48;;;;;;;61.85;38.45;;;4.50;99.90;;;;;;2075530;28;20156;-70
2023/04/10 04:34:24;;;;;;;61.97;37.97;;;4.50;99.90;;;;;;2060384;28;20044;-69
2023/04/10 04:35:43;;;;;;;61.22;37.22;;;4.50;99.90;;;;;;2055559;28;20042;-69
2023/04/10 04:36:54;;;;;;;;;;;4.60;99.90;;;;;;2073529;28;20041;-69
2023/04/10 04:38:15;;;;;;;61.08;37.45;;;4.60;99.90;;;;;;2076410;28;19916;-68
2023/04/10 04:39:39;;;;;;;56.47;35.75;;;4.60;99.90;;;;;;2081938;28;20102;-68
2023/04/10 04:41:05;;;;;;;57.80;36.28;;;4.60;99.90;;;;;;2076687;28;20040;-68
2023/04/10 04:42:26;;;;;;;56.60;35.97;;;4.70;99.90;;;;;;2082652;28;20457;-69
2023/04/10 04:43:52;;;;;;;59.08;36.47;;;4.70;99.90;;;;;;2075801;28;20025;-68
2023/04/10 04:45:13;;;;;;;55.47;35.42;;;4.70;99.90;;;;;;2074140;28;20352;-68
2023/04/10 04:46:30;;;;;;;54.95;35.78;;;4.70;99.90;;;;;;2080452;28;20025;-68
2023/04/10 04:48:06;;;;;;;52.80;34.45;;;4.70;99.90;;;;;;2066966;28;20030;-67
2023/04/10 04:49:23;;;;;;;53.80;35.33;;;4.80;99.90;;;;;;2065856;28;20335;-68
2023/04/10 04:50:41;;;;;;;53.97;35.40;;;4.80;99.90;;;;;;2076699;28;20040;-68
2023/04/10 04:52:10;;;;;;;54.35;35.10;;;4.90;99.90;;;;;;2078883;28;20060;-68
2023/04/10 04:53:15;;;;;;;54.28;35.55;;;4.90;99.90;;;;;;2073663;28;20839;-69
2023/04/10 04:54:27;;;;;;;57.20;36.00;;;5.00;99.90;;;;;;2074786;28;20019;-69
2023/04/10 04:55:54;;;;;;;53.00;34.50;;;5.00;99.90;;;;;;2065590;28;20064;-69
2023/04/10 04:57:13;;;;;;;52.55;34.55;;;5.10;99.90;;;;;;2081381;28;20033;-69
2023/04/10 04:58:28;;;;;;;54.42;34.92;;;5.10;99.90;;;;;;2082716;28;20492;-69
2023/04/10 04:59:45;;;;;;;51.92;33.88;;;5.20;99.90;;;;;;2083896;28;20028;-67
2023/04/10 05:01:05;;;;;;;52.13;34.13;;;5.20;99.90;;;;;;2079564;28;20033;-68
2023/04/10 05:02:25;;;;;;;;;;;5.30;99.90;;;;;;2082030;28;20027;-68
2023/04/10 05:03:37;;;;;;;52.35;33.40;;;5.40;99.90;;;;;;2086417;28;19921;-69
2023/04/10 05:04:55;;;;;;;50.08;32.60;;;5.50;99.90;;;;;;2076716;28;20029;-68
2023/04/10 05:06:08;;;;;;;49.00;32.33;;;5.60;99.90;;;;;;2076249;28;20025;-68
2023/04/10 05:07:21;;;;;;;52.38;32.90;;;5.70;99.90;;;;;;2076995;28;20035;-68
2023/04/10 05:09:01;;;;;;;51.75;33.65;;;5.80;99.90;;;;;;2074853;28;20059;-68
2023/04/10 05:10:17;;;;;;;51.58;33.40;;;6.00;99.90;;;;;;2081610;28;20028;-69
2023/04/10 05:11:17;;;;;;;49.50;33.70;;;6.10;99.90;;;;;;2082192;28;20508;-68
2023/04/10 05:12:36;;;;;;;48.83;32.83;;;6.20;99.90;;;;;;2082593;28;20393;-69
2023/04/10 05:13:51;;;;;;;50.40;33.58;;;6.30;99.90;;;;;;2081341;28;20017;-69
2023/04/10 05:15:09;;;;;;;49.65;33.13;;;6.30;99.90;;;;;;2076097;28;20030;-69
2023/04/10 05:16:17;;;;;;;48.80;32.22;;;6.30;99.90;;;;;;2077885;28;20023;-69
2023/04/10 05:17:31;;;;;;;50.00;32.85;;;6.30;99.90;;;;;;2075191;28;20460;-69
2023/04/10 05:18:47;;;;;;;47.97;32.00;;;6.20;99.90;;;;;;2076388;28;20033;-69
2023/04/10 05:19:59;;;;;;;49.00;32.17;;;6.20;99.90;;;;;;2076540;28;20112;-69
2023/04/10 05:21:20;;;;;;;48.72;32.20;;;6.10;99.90;;;;;;2081438;28;20175;-68
2023/04/10 05:22:39;;;;;;;48.78;32.95;;;6.00;99.90;;;;;;2079341;28;20033;-70
2023/04/10 05:23:48;;;;;;;48.08;32.58;;;6.00;99.90;;;;;;2081718;28;20120;-69
2023/04/10 05:25:12;;;;;;;46.30;30.52;;;6.00;99.90;;;;;;2076653;28;20039;-69
2023/04/10 05:26:34;;;;;;;49.88;32.55;;;5.90;99.90;;;;;;2070926;28;20095;-69
2023/04/10 05:28:07;;;;;;;48.90;32.55;;;5.90;99.90;;;;;;2075749;28;20424;-70
2023/04/10 05:29:28;;;;;;;52.00;33.17;;;5.90;99.90;;;;;;2079923;28;20047;-69
2023/04/10 05:30:52;;;;;;;55.53;34.30;;;5.90;99.90;;;;;;2072630;28;20044;-68
2023/04/10 05:32:21;;;;;;;53.17;33.45;;;6.10;99.90;;;;;;2077594;28;20530;-69
2023/04/10 05:33:51;;;;;;;54.67;34.38;;;6.20;99.90;;;;;;2075529;28;20028;-68
2023/04/10 05:35:04;;;;;;;54.58;34.53;;;6.40;99.90;;;;;;2073206;28;20036;-70
2023/04/10 05:36:31;;;;;;;53.25;33.78;;;6.50;99.90;;;;;;2079431;28;20091;-69
2023/04/10 05:37:54;;;;;;;60.65;35.97;;;6.50;99.90;;;;;;2078976;28;20024;-69
2023/04/10 05:39:14;;;;;;;55.03;34.47;;;6.50;99.90;;;;;;2084368;28;20025;-68
2023/04/10 05:40:35;;;;;;;53.55;33.80;;;6.50;99.90;;;;;;2088087;28;20463;-69
2023/04/10 05:41:53;;;;;;;52.10;33.20;;;6.50;99.90;;;;;;2078104;28;20044;-68
2023/04/10 05:43:12;;;;;;;59.03;36.03;;;6.50;99.90;;;;;;2079964;28;20041;-69
2023/04/10 05:44:45;;;;;;;56.38;34.72;;;6.50;99.90;;;;;;2079067;28;20041;-69
2023/04/10 05:46:04;;;;;;;55.53;34.97;;;6.50;99.90;;;;;;2085880;28;20657;-68
2023/04/10 05:47:24;;;;;;;55.63;35.28;;;6.50;99.90;;;;;;2081844;28;20032;-68